createdAt,value
2018-05-17T00:19:15.122Z,18.57
2018-05-17T00:34:40.971Z,22.77
2018-05-17T00:56:23.705Z,17.60
2018-05-17T00:58:52.312Z,15.73
2018-05-17T01:06:23.808Z,14.40
2018-05-17T01:08:52.471Z,14.80
2018-05-17T01:11:22.428Z,17.53
2018-05-17T01:13:51.285Z,15.20
2018-05-17T01:18:54.306Z,14.97
2018-05-17T01:23:58.874Z,13.57
2018-05-17T01:32:01.997Z,18.37
2018-05-17T01:34:33.428Z,16.53
2018-05-17T01:37:14.382Z,14.40
2018-05-17T01:39:44.827Z,14.90
2018-05-17T01:44:47.489Z,19.37
2018-05-17T01:50:00.480Z,15.53
2018-05-17T01:52:31.657Z,16.13
2018-05-17T01:54:59.966Z,17.97
2018-05-17T01:57:33.924Z,16.30
2018-05-17T02:00:03.119Z,16.03
2018-05-17T02:02:32.822Z,20.17
2018-05-17T02:05:01.816Z,14.67
2018-05-17T02:07:40.139Z,17.07
2018-05-17T02:15:13.865Z,17.47
2018-05-17T02:17:41.605Z,18.93
2018-05-17T02:22:43.696Z,20.83
2018-05-17T02:25:14.912Z,15.90
2018-05-17T02:27:43.699Z,16.30
2018-05-17T02:32:51.780Z,18.20
2018-05-17T02:37:52.018Z,17.80
2018-05-17T02:40:23.699Z,16.37
2018-05-17T02:42:51.176Z,16.60
2018-05-17T02:45:18.952Z,17.07
2018-05-17T02:47:46.549Z,17.70
2018-05-17T02:50:15.311Z,16.97
2018-05-17T02:52:43.586Z,18.77
2018-05-17T02:55:12.235Z,19.00
2018-05-17T02:57:39.971Z,17.40
2018-05-17T03:00:08.164Z,21.40
2018-05-17T03:02:35.732Z,19.77
2018-05-17T03:05:03.408Z,18.60
2018-05-17T03:07:31.072Z,22.23
2018-05-17T03:09:58.833Z,22.10
2018-05-17T03:12:26.545Z,22.67
2018-05-17T03:14:54.279Z,17.80
2018-05-17T03:17:23.760Z,17.27
2018-05-17T03:19:51.492Z,24.93
2018-05-17T03:22:19.275Z,24.40
2018-05-17T03:24:48.653Z,19.70
2018-05-17T03:29:52.689Z,23.50
2018-05-17T03:32:21.920Z,21.67
2018-05-17T03:34:50.523Z,15.50
2018-05-17T03:37:33.443Z,18.37
2018-05-17T03:40:01.486Z,18.53
2018-05-17T03:42:28.997Z,20.97
2018-05-17T03:44:57.570Z,23.23
2018-05-17T03:47:29.512Z,19.07
2018-05-17T03:49:57.239Z,18.60
2018-05-17T03:52:27.055Z,21.40
2018-05-17T03:54:54.915Z,24.00
2018-05-17T03:57:22.615Z,21.67
2018-05-17T03:59:52.404Z,20.80
2018-05-17T04:05:37.461Z,18.80
2018-05-17T04:08:05.311Z,17.27
2018-05-17T04:10:36.730Z,21.83
2018-05-17T04:18:16.207Z,20.83
2018-05-17T04:20:44.117Z,19.23
2018-05-17T04:23:11.948Z,20.73
2018-05-17T04:25:41.144Z,19.10
2018-05-17T04:28:08.890Z,15.63
2018-05-17T04:33:09.321Z,15.70
2018-05-17T04:35:38.859Z,22.87
2018-05-17T04:40:38.779Z,21.83
2018-05-17T04:43:06.997Z,21.90
2018-05-17T04:45:36.318Z,22.27
2018-05-17T04:48:04.165Z,18.07
2018-05-17T05:02:23.244Z,18.70
2018-05-17T05:04:52.698Z,22.13
2018-05-17T05:07:23.752Z,21.43
2018-05-17T05:09:52.838Z,20.80
2018-05-17T05:12:22.001Z,17.60
2018-05-17T05:14:52.087Z,20.40
2018-05-17T05:17:20.377Z,23.40
2018-05-17T05:19:49.038Z,23.60
2018-05-17T05:22:17.972Z,22.70
2018-05-17T05:27:18.939Z,20.10
2018-05-17T05:32:20.927Z,21.83
2018-05-17T05:34:49.258Z,22.40
2018-05-17T05:39:51.183Z,20.57
2018-05-17T05:42:19.733Z,27.67
2018-05-17T05:52:23.672Z,22.37
2018-05-17T05:54:54.609Z,18.17
2018-05-17T05:57:24.588Z,23.47
2018-05-17T05:59:52.369Z,22.43
2018-05-17T06:02:21.323Z,20.50
2018-05-17T06:04:53.023Z,33.07
2018-05-17T06:07:21.712Z,21.30
2018-05-17T06:09:49.545Z,20.00
2018-05-17T06:12:17.289Z,20.93
2018-05-17T06:14:49.539Z,23.80
2018-05-17T06:17:17.336Z,18.37
2018-05-17T06:19:45.204Z,23.07
2018-05-17T06:22:13.478Z,24.77
2018-05-17T06:35:41.056Z,23.27
2018-05-17T06:38:08.604Z,22.37
2018-05-17T06:40:38.458Z,25.77
2018-05-17T06:43:09.545Z,17.60
2018-05-17T06:48:19.840Z,24.97
2018-05-17T06:50:48.127Z,24.17
2018-05-17T06:53:15.652Z,21.40
2018-05-17T06:55:48.503Z,19.27
2018-05-17T06:58:18.393Z,22.47
2018-05-17T07:00:47.644Z,21.73
2018-05-17T07:03:15.216Z,17.50
2018-05-17T07:06:17.656Z,18.77
2018-05-17T07:08:47.626Z,23.83
2018-05-17T07:11:15.157Z,21.80
2018-05-17T07:13:42.900Z,19.20
2018-05-17T07:19:24.290Z,21.93
2018-05-17T07:24:55.572Z,19.63
2018-05-17T07:27:25.848Z,28.10
2018-05-17T07:29:54.239Z,18.73
2018-05-17T07:35:14.984Z,19.60
2018-05-17T07:37:43.558Z,17.63
2018-05-17T07:40:11.980Z,18.73
2018-05-17T07:42:40.376Z,17.93
2018-05-17T07:45:08.385Z,20.70
2018-05-17T07:47:36.942Z,25.07
2018-05-17T07:50:06.761Z,20.57
2018-05-17T07:52:34.843Z,18.30
2018-05-17T07:55:03.141Z,20.23
2018-05-17T07:57:31.172Z,23.23
2018-05-17T08:00:03.267Z,17.77
2018-05-17T08:02:30.987Z,20.70
2018-05-17T08:04:58.719Z,23.53
2018-05-17T08:07:26.564Z,18.73
2018-05-17T08:09:56.627Z,21.93
2018-05-17T08:17:29.720Z,22.33
2018-05-17T08:19:58.954Z,19.13
2018-05-17T08:22:27.060Z,20.53
2018-05-17T08:24:59.188Z,18.73
2018-05-17T08:27:26.667Z,17.23
2018-05-17T08:29:56.713Z,19.53
2018-05-17T08:32:24.842Z,17.00
2018-05-17T08:37:39.064Z,17.53
2018-05-17T08:42:39.595Z,19.10
2018-05-17T08:45:07.036Z,17.03
2018-05-17T08:47:34.582Z,22.37
2018-05-17T08:50:05.032Z,23.83
2018-05-17T08:52:32.894Z,19.57
2018-05-17T08:55:00.943Z,18.67
2018-05-17T08:58:18.961Z,19.97
2018-05-17T09:00:46.450Z,19.67
2018-05-17T09:03:13.966Z,19.47
2018-05-17T09:05:47.285Z,18.93
2018-05-17T09:08:14.761Z,18.47
2018-05-17T09:10:42.292Z,18.33
2018-05-17T09:13:11.183Z,22.83
2018-05-17T09:15:53.656Z,18.70
2018-05-17T09:18:23.456Z,20.47
2018-05-17T09:20:51.586Z,16.30
2018-05-17T09:23:19.495Z,32.10
2018-05-17T09:29:50.180Z,18.83
2018-05-17T09:34:51.228Z,17.73
2018-05-17T09:37:18.946Z,21.63
2018-05-17T09:39:47.061Z,19.93
2018-05-17T09:42:15.357Z,19.83
2018-05-17T09:44:43.566Z,18.80
2018-05-17T09:47:11.075Z,14.07
2018-05-17T09:49:43.016Z,14.30
2018-05-17T09:54:48.030Z,15.43
2018-05-17T09:57:15.546Z,16.23
2018-05-17T09:59:43.102Z,14.93
2018-05-17T10:02:11.114Z,17.20
2018-05-17T10:04:44.865Z,14.13
2018-05-17T10:07:19.447Z,14.80
2018-05-17T10:09:47.759Z,15.77
2018-05-17T10:14:49.440Z,16.23
2018-05-17T10:19:49.736Z,19.33
2018-05-17T10:22:19.175Z,15.00
2018-05-17T10:24:47.471Z,17.27
2018-05-17T10:27:20.743Z,15.20
2018-05-17T10:29:51.392Z,17.37
2018-05-17T10:32:23.727Z,13.80
2018-05-17T10:40:01.696Z,20.80
2018-05-17T10:45:09.181Z,13.00
2018-05-17T10:50:20.220Z,17.30
2018-05-17T10:52:49.778Z,18.77
2018-05-17T10:55:17.280Z,15.60
2018-05-17T10:57:46.556Z,17.23
2018-05-17T11:00:14.157Z,17.00
2018-05-17T11:02:41.775Z,16.20
2018-05-17T11:05:09.751Z,19.73
2018-05-17T11:07:38.638Z,17.50
2018-05-17T11:10:08.087Z,16.53
2018-05-17T11:12:35.586Z,21.00
2018-05-17T11:20:06.987Z,13.83
2018-05-17T11:25:06.984Z,14.17
2018-05-17T11:30:10.489Z,16.97
2018-05-17T11:35:11.799Z,18.03
2018-05-17T11:37:40.378Z,20.73
2018-05-17T11:40:08.521Z,16.23
2018-05-17T11:42:37.066Z,17.73
2018-05-17T11:45:05.047Z,15.87
2018-05-17T11:50:07.684Z,19.50
2018-05-17T11:52:36.596Z,17.53
2018-05-17T11:55:04.126Z,15.57
2018-05-17T11:57:39.066Z,17.57
2018-05-17T12:00:08.259Z,17.70
2018-05-17T12:02:36.580Z,18.83
2018-05-17T12:05:04.375Z,18.17
2018-05-17T12:07:32.738Z,14.90
2018-05-17T12:10:01.411Z,15.07
2018-05-17T12:12:29.336Z,16.87
2018-05-17T12:14:57.181Z,15.90
2018-05-17T12:17:39.590Z,15.53
2018-05-17T12:20:07.335Z,11.53
2018-05-17T12:22:36.952Z,16.13
2018-05-17T12:25:08.527Z,13.87
2018-05-17T12:27:40.718Z,12.87
2018-05-17T12:30:08.846Z,17.43
2018-05-17T12:32:39.482Z,14.33
2018-05-17T12:35:07.204Z,10.27
2018-05-17T12:38:01.013Z,10.43
2018-05-17T12:40:28.571Z,11.83
2018-05-17T12:42:57.816Z,10.37
2018-05-17T12:45:26.091Z,10.47
2018-05-17T12:47:55.354Z,12.93
2018-05-17T12:50:23.576Z,9.10
2018-05-17T12:52:51.565Z,11.77
2018-05-17T12:55:21.370Z,12.40
2018-05-17T12:57:50.041Z,13.03
2018-05-17T13:00:18.893Z,13.37
2018-05-17T13:02:47.233Z,12.97
2018-05-17T13:05:23.564Z,12.67
2018-05-17T13:07:52.432Z,14.70
2018-05-17T13:10:20.150Z,11.83
2018-05-17T13:12:49.230Z,12.27
2018-05-17T13:15:17.165Z,12.30
2018-05-17T13:17:44.889Z,10.90
2018-05-17T13:20:12.653Z,12.63
2018-05-17T13:22:40.184Z,11.83
2018-05-17T13:25:07.690Z,11.10
2018-05-17T13:27:36.072Z,10.07
2018-05-17T13:30:03.567Z,8.60
2018-05-17T13:32:31.063Z,10.43
2018-05-17T13:34:58.632Z,11.27
2018-05-17T13:37:27.877Z,10.23
2018-05-17T13:39:55.696Z,12.57
2018-05-17T13:42:23.993Z,11.00
2018-05-17T13:44:52.452Z,12.30
2018-05-17T13:47:20.404Z,37.97
2018-05-17T13:49:47.923Z,10.27
2018-05-17T13:52:15.427Z,13.93
2018-05-17T13:54:43.135Z,14.37
2018-05-17T13:57:21.458Z,10.90
2018-05-17T13:59:50.635Z,11.53
2018-05-17T14:02:18.840Z,10.40
2018-05-17T14:04:46.519Z,14.17
2018-05-17T14:07:14.823Z,13.70
2018-05-17T14:09:45.521Z,10.40
2018-05-17T14:12:13.722Z,9.23
2018-05-17T14:14:41.802Z,10.53
2018-05-17T14:17:09.970Z,8.93
2018-05-17T14:19:37.465Z,11.50
2018-05-17T14:22:05.704Z,7.80
2018-05-17T14:24:33.597Z,10.90
2018-05-17T14:27:22.528Z,10.23
2018-05-17T14:29:50.913Z,7.90
2018-05-17T14:32:19.600Z,7.97
2018-05-17T14:37:19.478Z,6.60
2018-05-17T14:39:48.208Z,6.53
2018-05-17T14:42:16.738Z,7.03
2018-05-17T14:44:44.988Z,9.13
2018-05-17T14:47:12.715Z,7.00
2018-05-17T14:49:40.983Z,8.20
2018-05-17T14:52:10.044Z,6.83
2018-05-17T14:54:37.571Z,7.30
2018-05-17T14:57:06.151Z,7.50
2018-05-17T14:59:34.108Z,8.27
2018-05-17T15:02:02.479Z,15.70
2018-05-17T15:07:03.963Z,6.90
2018-05-17T15:09:31.445Z,8.90
2018-05-17T15:11:58.928Z,8.33
2018-05-17T15:14:31.445Z,6.83
2018-05-17T15:16:59.289Z,6.13
2018-05-17T15:19:27.563Z,6.10
2018-05-17T15:21:56.084Z,15.83
2018-05-17T15:24:23.625Z,6.50
2018-05-17T15:26:51.309Z,6.93
2018-05-17T15:29:19.103Z,6.07
2018-05-17T15:31:46.615Z,9.05
2018-05-17T15:34:14.118Z,6.00
2018-05-17T15:36:41.871Z,7.80
2018-05-17T15:39:09.389Z,8.93
2018-05-17T15:41:40.346Z,6.00
2018-05-17T15:44:07.887Z,6.43
2018-05-17T15:46:35.365Z,6.20
2018-05-17T15:49:03.188Z,7.17
2018-05-17T15:51:30.941Z,8.47
2018-05-17T15:54:00.316Z,8.20
2018-05-17T15:56:33.396Z,9.30
2018-05-17T15:59:09.213Z,6.77
2018-05-17T16:01:37.744Z,8.87
2018-05-17T16:04:06.732Z,6.50
2018-05-17T16:06:35.030Z,10.10
2018-05-17T16:09:05.814Z,8.57
2018-05-17T16:11:34.736Z,6.60
2018-05-17T16:14:04.366Z,7.63
2018-05-17T16:16:32.350Z,7.13
2018-05-17T16:19:00.066Z,7.67
2018-05-17T16:21:27.808Z,6.87
2018-05-17T16:23:55.902Z,7.20
2018-05-17T16:26:28.652Z,7.30
2018-05-17T16:31:29.408Z,12.33
2018-05-17T16:33:57.634Z,8.03
2018-05-17T16:36:25.643Z,12.60
2018-05-17T16:38:53.307Z,7.27
2018-05-17T16:41:21.149Z,9.90
2018-05-17T16:43:48.627Z,8.73
2018-05-17T16:46:17.483Z,7.70
2018-05-17T16:48:45.211Z,8.03
2018-05-17T16:51:12.727Z,7.50
2018-05-17T16:53:40.218Z,7.97
2018-05-17T16:56:14.688Z,10.23
2018-05-17T16:58:42.503Z,7.60
2018-05-17T17:01:13.087Z,11.73
2018-05-17T17:03:40.566Z,9.07
2018-05-17T17:06:08.882Z,8.87
2018-05-17T17:08:36.731Z,9.60
2018-05-17T17:11:04.495Z,10.23
2018-05-17T17:13:32.252Z,12.33
2018-05-17T17:16:02.392Z,8.30
2018-05-17T17:18:29.906Z,10.00
2018-05-17T17:21:01.461Z,8.40
2018-05-17T17:23:30.676Z,9.13
2018-05-17T17:26:04.363Z,9.10
2018-05-17T17:28:32.155Z,6.90
2018-05-17T17:31:00.704Z,12.60
2018-05-17T17:33:31.054Z,7.37
2018-05-17T17:36:07.223Z,9.33
2018-05-17T17:38:38.073Z,10.53
2018-05-17T17:41:06.434Z,7.43
2018-05-17T17:43:34.720Z,9.57
2018-05-17T17:46:03.291Z,8.97
2018-05-17T17:48:32.550Z,8.47
2018-05-17T17:51:05.010Z,7.23
2018-05-17T17:58:39.624Z,10.40
2018-05-17T18:01:08.703Z,7.60
2018-05-17T18:03:36.278Z,7.90
2018-05-17T18:06:04.024Z,8.57
2018-05-17T18:08:35.916Z,11.60
2018-05-17T18:11:05.111Z,9.37
2018-05-17T18:13:34.824Z,9.20
2018-05-17T18:16:07.587Z,16.27
2018-05-17T18:18:38.397Z,7.57
2018-05-17T18:21:10.447Z,8.00
2018-05-17T18:47:41.543Z,7.80
2018-05-17T18:50:10.309Z,6.97
2018-05-17T18:52:39.474Z,7.07
2018-05-17T18:57:41.283Z,11.63
2018-05-17T19:00:10.723Z,8.30
2018-05-17T19:02:40.467Z,7.97
2018-05-17T19:05:11.474Z,11.10
2018-05-17T19:07:39.387Z,8.40
2018-05-17T19:12:41.811Z,7.97
2018-05-17T19:18:24.910Z,11.17
2018-05-17T19:20:55.035Z,11.00
2018-05-17T19:23:23.502Z,8.83
2018-05-17T19:28:26.335Z,10.27
2018-05-17T19:30:56.141Z,11.40
2018-05-17T19:33:27.416Z,9.33
2018-05-17T19:36:26.872Z,9.43
2018-05-17T19:38:55.201Z,11.10
2018-05-17T19:41:22.744Z,9.90
2018-05-17T19:43:51.255Z,8.17
2018-05-17T19:46:29.453Z,10.43
2018-05-17T19:49:00.355Z,8.13
2018-05-17T19:51:29.278Z,12.33
2018-05-17T19:53:59.312Z,9.47
2018-05-17T19:59:14.108Z,9.33
2018-05-17T20:12:19.327Z,11.30
2018-05-17T20:19:54.901Z,13.73
2018-05-17T20:22:22.447Z,12.90
2018-05-17T20:24:51.692Z,12.43
2018-05-17T20:27:19.410Z,9.97
2018-05-17T20:29:48.145Z,12.63
2018-05-17T20:32:16.563Z,13.13
2018-05-17T20:34:44.263Z,10.17
2018-05-17T20:37:15.298Z,8.90
2018-05-17T20:39:43.839Z,8.03
2018-05-17T20:42:13.057Z,8.07
2018-05-17T20:44:40.791Z,10.83
2018-05-17T20:47:22.924Z,10.77
2018-05-17T20:49:51.144Z,9.23
2018-05-17T20:57:25.086Z,11.20
2018-05-17T21:07:36.915Z,8.87
2018-05-17T21:10:05.562Z,10.47
2018-05-17T21:12:33.117Z,8.47
2018-05-17T21:15:02.322Z,7.63
2018-05-17T21:17:30.081Z,8.80
2018-05-17T21:19:58.263Z,8.87
2018-05-17T21:22:25.910Z,9.40
2018-05-17T21:24:57.731Z,7.93
2018-05-17T21:29:57.595Z,12.07
2018-05-17T21:32:25.508Z,10.53
2018-05-17T21:34:53.092Z,7.60
2018-05-17T21:37:23.076Z,9.33
2018-05-17T21:42:23.673Z,6.37
2018-05-17T21:44:52.143Z,8.50
2018-05-17T21:47:23.899Z,9.17
2018-05-17T21:49:53.795Z,10.37
2018-05-17T21:57:41.468Z,9.03
2018-05-17T22:00:12.624Z,8.90
2018-05-17T22:02:41.096Z,7.43
2018-05-17T22:05:09.355Z,9.43
2018-05-17T22:10:08.569Z,11.13
2018-05-17T22:12:36.715Z,8.60
2018-05-17T22:15:04.695Z,11.23
2018-05-17T22:20:05.030Z,8.83
2018-05-17T22:22:32.888Z,8.23
2018-05-17T22:25:01.101Z,10.50
2018-05-17T22:27:28.908Z,8.67
2018-05-17T22:29:56.395Z,9.97
2018-05-17T22:32:24.672Z,9.57
2018-05-17T22:34:55.618Z,8.73
2018-05-17T22:37:23.211Z,8.50
2018-05-17T22:39:51.063Z,10.27
2018-05-17T22:42:21.817Z,8.57
2018-05-17T22:44:49.342Z,10.93
2018-05-17T22:47:17.515Z,9.57
2018-05-17T22:49:45.074Z,6.83
2018-05-17T22:52:13.328Z,8.27
2018-05-17T22:54:40.813Z,8.47
2018-05-17T22:57:31.124Z,8.37
2018-05-17T22:59:58.612Z,8.30
2018-05-17T23:02:26.840Z,7.57
2018-05-17T23:04:55.143Z,9.97
2018-05-17T23:07:23.075Z,9.37
2018-05-17T23:09:50.796Z,7.23
2018-05-17T23:12:18.287Z,9.23
2018-05-17T23:14:45.820Z,11.57
2018-05-17T23:17:23.651Z,10.20
2018-05-17T23:19:51.877Z,12.03
2018-05-17T23:22:31.105Z,10.50
2018-05-17T23:24:58.610Z,11.90
2018-05-17T23:27:26.120Z,12.83
2018-05-17T23:29:53.682Z,10.03
2018-05-17T23:32:21.207Z,9.67
2018-05-17T23:34:48.733Z,9.87
2018-05-17T23:37:22.256Z,10.00
2018-05-17T23:39:49.764Z,8.60
2018-05-17T23:42:17.286Z,12.27
2018-05-17T23:44:45.130Z,11.23
2018-05-17T23:47:12.643Z,10.93
2018-05-17T23:49:40.184Z,9.53
2018-05-17T23:52:07.943Z,9.17
2018-05-17T23:54:36.237Z,13.87
2018-05-17T23:57:18.508Z,10.37
2018-05-17T23:59:46.672Z,10.87
